Amity, Missouri
Current Conditions -  °F | °C
As of 1:53 AM on Friday 31 Oct 2014 (Local Time) from KSTJ Reporting Station
Overcast Overcast  
Wind Chill: 41°   Ceiling: 2700
Heat Index: 48°   Visibility: 10mi
Dew Point: 38°   Wind: 20mph
Humidity: 68%   Direction: 10°N
Pressure: 30.3"   Gusts: 33mph
Location:  39.87°N, 94.44°W
Report Text: KSTJ 310653Z AUTO 01017G29KT 10SM OVC027 09/03 A3030 RMK AO2 PK WND 35032/0628 SLP260 T00890033
Loading
Personal Weather Stations






























Interactive Weather Map
Tropical Storm Tracking
New forecast layout! Learn more

10-Day Weather Forecast

Advertisements
Track Severe Weather on mobile